createdAt,value
2023-04-16T00:01:19.784Z,13.05
2023-04-16T00:04:24.136Z,12.77
2023-04-16T00:07:28.201Z,14.18
2023-04-16T00:10:32.651Z,15.18
2023-04-16T00:13:37.406Z,15.15
2023-04-16T00:16:41.592Z,15.07
2023-04-16T00:19:45.284Z,14.75
2023-04-16T00:22:49.385Z,15.88
2023-04-16T00:25:59.705Z,15.70
2023-04-16T00:29:03.741Z,14.70
2023-04-16T00:32:07.842Z,15.15
2023-04-16T00:35:12.177Z,15.30
2023-04-16T00:38:16.564Z,15.23
2023-04-16T00:41:20.578Z,15.98
2023-04-16T00:44:24.806Z,15.93
2023-04-16T00:47:29.146Z,16.05
2023-04-16T00:50:33.613Z,16.10
2023-04-16T00:53:38.063Z,16.90
2023-04-16T00:56:42.564Z,16.00
2023-04-16T00:59:46.718Z,16.38
2023-04-16T01:02:51.153Z,16.05
2023-04-16T01:05:55.745Z,17.48
2023-04-16T01:08:59.549Z,17.65
2023-04-16T01:12:03.697Z,17.80
2023-04-16T01:15:08.707Z,17.75
2023-04-16T01:18:16.927Z,18.08
2023-04-16T01:21:21.560Z,18.52
2023-04-16T01:24:25.607Z,17.77
2023-04-16T01:27:29.791Z,18.83
2023-04-16T01:30:33.948Z,18.98
2023-04-16T01:33:38.281Z,19.48
2023-04-16T01:36:42.632Z,20.52
2023-04-16T01:39:46.689Z,20.08
2023-04-16T01:42:51.633Z,20.88
2023-04-16T01:46:12.123Z,21.27
2023-04-16T01:49:16.317Z,20.48
2023-04-16T01:52:20.284Z,20.73
2023-04-16T01:55:24.661Z,20.17
2023-04-16T01:58:29.870Z,20.20
2023-04-16T02:01:34.544Z,19.83
2023-04-16T02:04:39.700Z,18.65
2023-04-16T02:07:44.125Z,18.23
2023-04-16T02:10:49.957Z,16.40
2023-04-16T02:13:54.105Z,16.00
2023-04-16T02:16:58.211Z,16.30
2023-04-16T02:20:05.541Z,15.60
2023-04-16T02:23:10.192Z,14.05
2023-04-16T02:26:14.279Z,14.15
2023-04-16T02:29:18.500Z,13.00
2023-04-16T02:32:22.686Z,11.38
2023-04-16T02:35:26.835Z,11.20
2023-04-16T02:38:31.169Z,10.73
2023-04-16T02:41:36.081Z,11.43
2023-04-16T02:44:40.417Z,11.38
2023-04-16T02:47:44.551Z,11.05
2023-04-16T02:50:48.799Z,11.05
2023-04-16T02:53:52.507Z,11.00
2023-04-16T02:56:56.855Z,11.07
2023-04-16T03:00:01.267Z,11.25
2023-04-16T03:03:05.712Z,10.65
2023-04-16T03:06:09.418Z,11.68
2023-04-16T03:09:13.384Z,11.60
2023-04-16T03:12:17.428Z,11.70
2023-04-16T03:15:21.441Z,11.38
2023-04-16T03:18:25.682Z,13.25
2023-04-16T03:21:29.845Z,12.20
2023-04-16T03:24:34.061Z,12.93
2023-04-16T03:27:39.714Z,13.00
2023-04-16T03:30:44.015Z,12.63
2023-04-16T03:33:47.981Z,13.13
2023-04-16T03:36:51.706Z,13.27
2023-04-16T03:39:55.858Z,14.38
2023-04-16T03:43:00.052Z,13.40
2023-04-16T03:46:04.359Z,12.95
2023-04-16T03:49:08.601Z,14.02
2023-04-16T03:52:13.332Z,13.77
2023-04-16T03:55:17.663Z,14.32
2023-04-16T03:58:21.783Z,14.30
2023-04-16T04:01:26.215Z,12.88
2023-04-16T04:04:30.424Z,13.60
2023-04-16T04:07:34.769Z,13.20
2023-04-16T04:10:39.264Z,12.75
2023-04-16T04:13:43.417Z,13.27
2023-04-16T04:16:47.563Z,12.48
2023-04-16T04:20:00.875Z,14.20
2023-04-16T04:23:06.025Z,13.73
2023-04-16T04:26:10.255Z,12.57
2023-04-16T04:29:14.307Z,14.15
2023-04-16T04:32:18.343Z,13.10
2023-04-16T04:35:23.194Z,12.10
2023-04-16T04:38:27.168Z,12.25
2023-04-16T04:41:31.426Z,11.63
2023-04-16T04:44:35.465Z,10.18
2023-04-16T04:47:39.631Z,9.63
2023-04-16T04:50:45.022Z,9.73
2023-04-16T04:53:49.238Z,9.02
2023-04-16T04:56:53.407Z,8.85
2023-04-16T04:59:57.503Z,8.27
2023-04-16T05:03:11.323Z,8.98
2023-04-16T05:06:16.340Z,8.98
2023-04-16T05:09:20.517Z,9.75
2023-04-16T05:12:24.500Z,9.50
2023-04-16T05:15:28.888Z,8.05
2023-04-16T05:18:33.372Z,7.75
2023-04-16T05:21:37.308Z,7.55
2023-04-16T05:24:41.362Z,8.82
2023-04-16T05:27:45.390Z,8.02
2023-04-16T05:30:51.025Z,7.43
2023-04-16T05:33:55.373Z,7.85
2023-04-16T05:36:59.350Z,7.30
2023-04-16T05:40:04.051Z,7.55
2023-04-16T05:43:08.610Z,8.00
2023-04-16T05:46:12.847Z,7.28
2023-04-16T05:49:18.806Z,8.00
2023-04-16T05:52:22.633Z,7.75
2023-04-16T05:55:26.558Z,10.23
2023-04-16T05:58:30.720Z,10.95
2023-04-16T06:01:34.866Z,8.02
2023-04-16T06:04:38.977Z,6.85
2023-04-16T06:07:43.167Z,6.68
2023-04-16T06:10:47.568Z,7.32
2023-04-16T06:13:51.820Z,6.55
2023-04-16T06:16:56.406Z,6.53
2023-04-16T06:20:00.503Z,6.72
2023-04-16T06:23:04.545Z,7.40
2023-04-16T06:26:08.675Z,6.28
2023-04-16T06:29:12.791Z,5.90
2023-04-16T06:32:17.480Z,6.32
2023-04-16T06:35:21.935Z,6.00
2023-04-16T06:38:25.627Z,6.75
2023-04-16T06:41:30.353Z,6.65
2023-04-16T06:44:35.922Z,6.80
2023-04-16T06:47:39.917Z,7.15
2023-04-16T06:50:44.242Z,7.55
2023-04-16T06:53:49.333Z,7.25
2023-04-16T06:56:53.256Z,8.20
2023-04-16T06:59:57.521Z,7.15
2023-04-16T07:03:01.973Z,7.63
2023-04-16T07:06:06.361Z,7.22
2023-04-16T07:09:10.827Z,7.10
2023-04-16T07:12:15.370Z,7.47
2023-04-16T07:15:19.507Z,6.93
2023-04-16T07:18:23.758Z,7.43
2023-04-16T07:21:28.139Z,6.18
2023-04-16T07:24:32.628Z,5.40
2023-04-16T07:27:36.374Z,5.30
2023-04-16T07:30:40.394Z,5.22
2023-04-16T07:33:44.643Z,5.40
2023-04-16T07:36:48.888Z,4.97
2023-04-16T07:39:53.423Z,5.43
2023-04-16T07:42:58.216Z,6.30
2023-04-16T07:46:02.529Z,6.18
2023-04-16T07:49:06.994Z,7.35
2023-04-16T07:52:10.971Z,8.60
2023-04-16T07:55:15.369Z,7.65
2023-04-16T07:58:19.479Z,5.30
2023-04-16T08:01:23.657Z,5.28
2023-04-16T08:04:28.085Z,4.28
2023-04-16T08:07:34.449Z,3.85
2023-04-16T08:10:39.458Z,3.83
2023-04-16T08:13:43.679Z,3.53
2023-04-16T08:16:47.855Z,3.60
2023-04-16T08:19:52.185Z,3.40
2023-04-16T08:22:56.265Z,3.90
2023-04-16T08:26:01.475Z,2.88
2023-04-16T08:29:05.922Z,3.05
2023-04-16T08:32:10.223Z,2.95
2023-04-16T08:35:14.526Z,3.00
2023-04-16T08:38:18.498Z,3.10
2023-04-16T08:41:24.012Z,3.17
2023-04-16T08:44:37.490Z,3.22
2023-04-16T08:47:51.863Z,3.13
2023-04-16T08:50:56.620Z,3.03
2023-04-16T08:54:04.518Z,3.30
2023-04-16T08:57:11.947Z,7.22
2023-04-16T09:00:16.734Z,6.43
2023-04-16T09:03:21.655Z,7.13
2023-04-16T09:06:27.801Z,7.47
2023-04-16T09:09:34.626Z,7.63
2023-04-16T09:12:42.918Z,6.40
2023-04-16T09:15:47.318Z,8.13
2023-04-16T09:18:52.269Z,9.00
2023-04-16T09:21:56.335Z,8.85
2023-04-16T09:25:00.547Z,9.77
2023-04-16T09:28:05.128Z,9.60
2023-04-16T09:31:17.804Z,9.40
2023-04-16T09:34:21.864Z,9.55
2023-04-16T09:37:30.479Z,8.70
2023-04-16T09:40:34.656Z,8.40
2023-04-16T09:43:39.259Z,7.82
2023-04-16T09:46:43.275Z,8.02
2023-04-16T09:49:48.128Z,7.93
2023-04-16T09:52:52.028Z,7.35
2023-04-16T09:56:01.265Z,6.30
2023-04-16T09:59:05.326Z,6.63
2023-04-16T10:02:14.688Z,7.00
2023-04-16T10:05:20.251Z,6.00
2023-04-16T10:08:24.541Z,6.00
2023-04-16T10:11:29.376Z,6.07
2023-04-16T10:14:36.600Z,6.00
2023-04-16T10:17:40.553Z,5.80
2023-04-16T10:20:44.555Z,5.65
2023-04-16T10:23:50.478Z,5.47
2023-04-16T10:26:55.359Z,5.15
2023-04-16T10:30:00.292Z,5.60
2023-04-16T10:33:05.428Z,5.70
2023-04-16T10:36:22.947Z,5.00
2023-04-16T10:39:29.352Z,5.70
2023-04-16T10:42:33.640Z,5.50
2023-04-16T10:45:38.559Z,5.10
2023-04-16T10:48:49.872Z,5.40
2023-04-16T10:52:07.470Z,5.00
2023-04-16T10:55:17.540Z,4.80
2023-04-16T10:58:34.615Z,4.88
2023-04-16T11:01:44.003Z,4.50
2023-04-16T11:04:49.187Z,4.63
2023-04-16T11:07:54.004Z,4.03
2023-04-16T11:10:58.762Z,3.97
2023-04-16T11:14:04.711Z,4.20
2023-04-16T11:17:09.736Z,3.78
2023-04-16T11:20:22.352Z,3.05
2023-04-16T11:23:26.618Z,2.75
2023-04-16T11:26:30.779Z,3.00
2023-04-16T11:29:34.872Z,3.00
2023-04-16T11:32:39.332Z,2.72
2023-04-16T11:35:45.841Z,2.97
2023-04-16T11:38:50.053Z,2.95
2023-04-16T11:41:54.115Z,3.40
2023-04-16T11:45:02.564Z,3.10
2023-04-16T11:48:08.137Z,2.78
2023-04-16T11:51:13.023Z,3.38
2023-04-16T11:54:21.706Z,2.90
2023-04-16T11:57:30.452Z,3.20
2023-04-16T12:00:35.624Z,3.42
2023-04-16T12:03:44.095Z,3.33
2023-04-16T12:07:08.353Z,3.35
2023-04-16T12:16:21.402Z,3.20
2023-04-16T12:19:25.804Z,2.97
2023-04-16T12:22:31.868Z,2.90
2023-04-16T12:25:36.280Z,3.42
2023-04-16T12:28:41.648Z,3.38
2023-04-16T12:31:46.921Z,2.70
2023-04-16T12:34:51.584Z,3.20
2023-04-16T12:37:55.913Z,3.10
2023-04-16T12:41:02.269Z,2.83
2023-04-16T12:44:14.605Z,3.15
2023-04-16T12:47:18.755Z,3.25
2023-04-16T12:50:23.168Z,3.53
2023-04-16T12:53:27.457Z,4.00
2023-04-16T12:56:31.818Z,4.05
2023-04-16T12:59:36.008Z,3.85
2023-04-16T13:02:41.149Z,4.10
2023-04-16T13:05:45.468Z,4.35
2023-04-16T13:08:49.381Z,4.55
2023-04-16T13:11:53.455Z,4.50
2023-04-16T13:14:57.441Z,5.13
2023-04-16T13:18:01.508Z,5.15
2023-04-16T13:21:05.668Z,5.25
2023-04-16T13:24:09.589Z,5.03
2023-04-16T13:27:16.017Z,4.93
2023-04-16T13:30:19.927Z,5.20
2023-04-16T13:33:24.626Z,5.32
2023-04-16T13:36:29.952Z,4.47
2023-04-16T13:39:33.999Z,5.13
2023-04-16T13:42:38.089Z,5.35
2023-04-16T13:45:42.216Z,6.07
2023-04-16T13:48:46.887Z,6.45
2023-04-16T13:51:50.913Z,6.25
2023-04-16T13:54:55.125Z,6.38
2023-04-16T13:57:59.309Z,6.40
2023-04-16T14:01:03.434Z,6.10
2023-04-16T14:04:07.670Z,6.75
2023-04-16T14:07:12.054Z,6.35
2023-04-16T14:10:16.258Z,7.10
2023-04-16T14:13:20.704Z,6.20
2023-04-16T14:16:25.667Z,6.47
2023-04-16T14:19:30.447Z,6.88
2023-04-16T14:22:34.427Z,7.03
2023-04-16T14:25:38.928Z,7.00
2023-04-16T14:28:43.115Z,7.07
2023-04-16T14:31:47.439Z,7.30
2023-04-16T14:34:51.618Z,7.88
2023-04-16T14:37:56.154Z,7.68
2023-04-16T14:41:00.484Z,8.38
2023-04-16T14:44:06.182Z,8.55
2023-04-16T14:47:10.662Z,8.73
2023-04-16T14:50:15.555Z,8.90
2023-04-16T14:53:19.920Z,8.70
2023-04-16T14:56:26.870Z,8.23
2023-04-16T14:59:31.551Z,7.82
2023-04-16T15:02:35.655Z,7.68
2023-04-16T15:05:40.077Z,8.45
2023-04-16T15:08:44.473Z,8.80
2023-04-16T15:11:48.752Z,8.02
2023-04-16T15:14:52.948Z,8.40
2023-04-16T15:17:57.642Z,8.32
2023-04-16T15:21:01.921Z,8.23
2023-04-16T15:24:06.629Z,9.80
2023-04-16T15:27:14.646Z,7.72
2023-04-16T15:30:19.259Z,7.57
2023-04-16T15:33:23.370Z,7.30
2023-04-16T15:36:27.320Z,7.70
2023-04-16T15:39:31.673Z,7.43
2023-04-16T15:42:36.090Z,8.60
2023-04-16T15:45:39.826Z,7.88
2023-04-16T15:48:44.053Z,7.85
2023-04-16T15:51:48.074Z,8.35
2023-04-16T15:54:52.496Z,7.72
2023-04-16T15:57:56.803Z,8.57
2023-04-16T16:01:01.060Z,7.35
2023-04-16T16:04:07.142Z,7.57
2023-04-16T16:07:12.475Z,7.70
2023-04-16T16:10:16.877Z,7.53
2023-04-16T16:13:21.380Z,7.70
2023-04-16T16:16:25.673Z,7.32
2023-04-16T16:19:30.407Z,7.40
2023-04-16T16:22:34.544Z,6.38
2023-04-16T16:25:39.513Z,5.95
2023-04-16T16:28:44.691Z,6.03
2023-04-16T16:31:48.863Z,5.57
2023-04-16T16:34:52.689Z,6.80
2023-04-16T16:37:57.247Z,5.85
2023-04-16T16:41:01.120Z,6.07
2023-04-16T16:44:05.518Z,6.25
2023-04-16T16:47:09.573Z,6.63
2023-04-16T16:50:14.165Z,6.65
2023-04-16T16:53:18.445Z,5.88
2023-04-16T16:56:22.890Z,5.47
2023-04-16T16:59:26.894Z,5.65
2023-04-16T17:02:31.049Z,5.55
2023-04-16T17:05:35.760Z,6.20
2023-04-16T17:08:39.972Z,5.82
2023-04-16T17:11:43.659Z,5.68
2023-04-16T17:14:50.892Z,6.03
2023-04-16T17:17:55.130Z,5.85
2023-04-16T17:20:59.042Z,6.43
2023-04-16T17:24:02.840Z,6.00
2023-04-16T17:27:06.919Z,7.25
2023-04-16T17:30:11.368Z,7.65
2023-04-16T17:33:17.127Z,8.23
2023-04-16T17:36:23.168Z,9.02
2023-04-16T17:39:27.193Z,8.88
2023-04-16T17:42:31.362Z,8.80
2023-04-16T17:45:35.402Z,9.05
2023-04-16T17:48:39.475Z,9.50
2023-04-16T17:51:44.618Z,9.75
2023-04-16T17:54:49.121Z,10.18
2023-04-16T17:57:52.926Z,10.30
2023-04-16T18:00:56.870Z,10.55
2023-04-16T18:04:01.132Z,10.93
2023-04-16T18:07:06.452Z,9.98
2023-04-16T18:10:11.157Z,10.45
2023-04-16T18:13:15.577Z,11.18
2023-04-16T18:16:20.130Z,11.38
2023-04-16T18:19:24.153Z,11.68
2023-04-16T18:22:28.534Z,11.75
2023-04-16T18:25:35.277Z,12.35
2023-04-16T18:28:39.620Z,12.80
2023-04-16T18:31:44.188Z,11.65
2023-04-16T18:34:48.192Z,11.35
2023-04-16T18:37:52.267Z,11.05
2023-04-16T18:40:56.981Z,12.07
2023-04-16T18:44:00.920Z,11.40
2023-04-16T18:47:04.694Z,11.65
2023-04-16T18:50:09.388Z,11.43
2023-04-16T18:53:13.791Z,11.25
2023-04-16T18:56:18.406Z,10.43
2023-04-16T18:59:22.521Z,11.00
2023-04-16T19:02:26.722Z,10.90
2023-04-16T19:05:31.199Z,11.27
2023-04-16T19:08:35.482Z,11.27
2023-04-16T19:11:39.700Z,11.10
2023-04-16T19:14:44.031Z,12.07
2023-04-16T19:17:48.030Z,12.80
2023-04-16T19:20:58.031Z,13.45
2023-04-16T19:24:02.103Z,14.43
2023-04-16T19:27:06.435Z,14.98
2023-04-16T19:30:11.252Z,15.63
2023-04-16T19:33:15.439Z,15.57
2023-04-16T19:36:19.693Z,16.70
2023-04-16T19:39:27.962Z,16.17
2023-04-16T19:42:32.466Z,14.57
2023-04-16T19:45:42.765Z,15.23
2023-04-16T19:48:47.071Z,14.75
2023-04-16T19:51:51.347Z,15.00
2023-04-16T19:54:55.735Z,14.10
2023-04-16T19:58:05.553Z,14.40
2023-04-16T20:01:10.629Z,13.38
2023-04-16T20:04:15.021Z,13.88
2023-04-16T20:07:19.686Z,13.40
2023-04-16T20:10:23.902Z,12.55
2023-04-16T20:13:28.124Z,13.63
2023-04-16T20:16:32.384Z,12.52
2023-04-16T20:19:38.364Z,12.23
2023-04-16T20:22:43.092Z,12.32
2023-04-16T20:25:47.728Z,12.75
2023-04-16T20:28:51.474Z,11.52
2023-04-16T20:31:55.701Z,12.02
2023-04-16T20:34:59.886Z,12.40
2023-04-16T20:38:04.158Z,11.75
2023-04-16T20:41:14.416Z,11.98
2023-04-16T20:44:18.835Z,11.43
2023-04-16T20:47:23.000Z,12.25
2023-04-16T20:50:27.008Z,11.48
2023-04-16T20:53:32.414Z,13.23
2023-04-16T20:56:36.442Z,12.15
2023-04-16T20:59:40.501Z,12.48
2023-04-16T21:02:44.390Z,12.65
2023-04-16T21:05:55.787Z,12.98
2023-04-16T21:08:59.503Z,13.25
2023-04-16T21:12:03.634Z,13.35
2023-04-16T21:15:08.161Z,13.27
2023-04-16T21:18:12.716Z,12.27
2023-04-16T21:21:16.623Z,12.82
2023-04-16T21:24:20.970Z,11.88
2023-04-16T21:27:25.047Z,12.35
2023-04-16T21:30:28.964Z,12.50
2023-04-16T21:33:33.137Z,11.90
2023-04-16T21:36:37.176Z,10.98
2023-04-16T21:39:41.156Z,11.43
2023-04-16T21:42:45.267Z,10.68
2023-04-16T21:45:54.664Z,9.93
2023-04-16T21:48:59.127Z,10.75
2023-04-16T21:52:03.636Z,10.18
2023-04-16T21:55:09.384Z,9.35
2023-04-16T21:58:13.126Z,9.10
2023-04-16T22:01:17.376Z,8.70
2023-04-16T22:04:26.080Z,9.07
2023-04-16T22:07:30.491Z,8.70
2023-04-16T22:10:34.902Z,8.35
2023-04-16T22:13:41.945Z,8.00
2023-04-16T22:16:45.968Z,8.23
2023-04-16T22:19:50.821Z,8.07
2023-04-16T22:22:57.789Z,7.80
2023-04-16T22:26:02.635Z,7.57
2023-04-16T22:29:07.269Z,7.65
2023-04-16T22:32:11.653Z,7.25
2023-04-16T22:35:15.654Z,7.93
2023-04-16T22:38:19.756Z,7.78
2023-04-16T22:41:23.673Z,8.07
2023-04-16T22:44:27.908Z,7.63
2023-04-16T22:47:32.401Z,6.97
2023-04-16T22:50:36.308Z,6.70
2023-04-16T22:53:40.341Z,6.47
2023-04-16T22:56:44.670Z,6.97
2023-04-16T22:59:48.931Z,6.60
2023-04-16T23:02:53.337Z,6.65
2023-04-16T23:05:57.616Z,6.40
2023-04-16T23:09:01.648Z,6.45
2023-04-16T23:12:06.123Z,6.53
2023-04-16T23:15:10.912Z,6.65
2023-04-16T23:18:15.314Z,6.90
2023-04-16T23:21:19.433Z,7.43
2023-04-16T23:24:23.337Z,6.93
2023-04-16T23:27:27.680Z,7.68
2023-04-16T23:30:31.973Z,7.57
2023-04-16T23:33:36.249Z,8.00
2023-04-16T23:36:40.840Z,8.50
2023-04-16T23:39:44.832Z,8.93
2023-04-16T23:42:49.268Z,9.23
2023-04-16T23:45:53.232Z,9.27
2023-04-16T23:48:57.254Z,10.02
2023-04-16T23:52:02.127Z,9.85
2023-04-16T23:55:06.578Z,10.73
2023-04-16T23:58:10.738Z,12.60
